sensor_id;sensor_type;location;lat;lon;timestamp;P1;durP1;ratioP1;P2;durP2;ratioP2
27895;SDS011;15241;48.374;10.876;2023-02-15T00:03:18;45.08;;;9.63;;
27895;SDS011;15241;48.374;10.876;2023-02-15T00:08:17;45.45;;;9.78;;
27895;SDS011;15241;48.374;10.876;2023-02-15T00:13:15;26.17;;;9.08;;
27895;SDS011;15241;48.374;10.876;2023-02-15T00:18:14;15.85;;;8.15;;
27895;SDS011;15241;48.374;10.876;2023-02-15T00:23:13;22.65;;;9.40;;
27895;SDS011;15241;48.374;10.876;2023-02-15T00:28:12;28.23;;;10.32;;
27895;SDS011;15241;48.374;10.876;2023-02-15T00:33:11;27.48;;;9.83;;
27895;SDS011;15241;48.374;10.876;2023-02-15T00:38:10;18.02;;;8.93;;
27895;SDS011;15241;48.374;10.876;2023-02-15T00:43:09;23.55;;;8.78;;
27895;SDS011;15241;48.374;10.876;2023-02-15T00:48:08;23.98;;;8.28;;
27895;SDS011;15241;48.374;10.876;2023-02-15T00:53:06;23.42;;;8.88;;
27895;SDS011;15241;48.374;10.876;2023-02-15T00:58:06;50.98;;;10.10;;
27895;SDS011;15241;48.374;10.876;2023-02-15T01:03:04;18.48;;;8.78;;
27895;SDS011;15241;48.374;10.876;2023-02-15T01:08:04;30.62;;;10.45;;
27895;SDS011;15241;48.374;10.876;2023-02-15T01:13:03;20.23;;;8.85;;
27895;SDS011;15241;48.374;10.876;2023-02-15T01:18:02;13.72;;;8.63;;
27895;SDS011;15241;48.374;10.876;2023-02-15T01:23:01;15.58;;;9.05;;
27895;SDS011;15241;48.374;10.876;2023-02-15T01:28:00;16.30;;;8.63;;
27895;SDS011;15241;48.374;10.876;2023-02-15T01:33:00;12.63;;;8.00;;
27895;SDS011;15241;48.374;10.876;2023-02-15T01:37:59;12.85;;;8.00;;
27895;SDS011;15241;48.374;10.876;2023-02-15T01:42:57;13.80;;;8.90;;
27895;SDS011;15241;48.374;10.876;2023-02-15T01:47:58;19.10;;;8.15;;
27895;SDS011;15241;48.374;10.876;2023-02-15T01:53:01;40.17;;;9.30;;
27895;SDS011;15241;48.374;10.876;2023-02-15T01:58:01;13.10;;;8.28;;
27895;SDS011;15241;48.374;10.876;2023-02-15T02:03:00;39.90;;;9.80;;
27895;SDS011;15241;48.374;10.876;2023-02-15T02:08:01;24.25;;;9.75;;
27895;SDS011;15241;48.374;10.876;2023-02-15T02:13:01;13.00;;;8.08;;
27895;SDS011;15241;48.374;10.876;2023-02-15T02:18:05;14.25;;;8.58;;
27895;SDS011;15241;48.374;10.876;2023-02-15T02:23:10;27.90;;;8.48;;
27895;SDS011;15241;48.374;10.876;2023-02-15T02:28:41;24.98;;;8.98;;
27895;SDS011;15241;48.374;10.876;2023-02-15T02:33:52;15.45;;;8.38;;
27895;SDS011;15241;48.374;10.876;2023-02-15T02:39:00;15.63;;;8.73;;
27895;SDS011;15241;48.374;10.876;2023-02-15T02:44:13;12.98;;;7.92;;
27895;SDS011;15241;48.374;10.876;2023-02-15T02:49:15;14.70;;;8.47;;
27895;SDS011;15241;48.374;10.876;2023-02-15T02:54:14;13.00;;;8.08;;
27895;SDS011;15241;48.374;10.876;2023-02-15T02:59:15;16.93;;;8.28;;
27895;SDS011;15241;48.374;10.876;2023-02-15T03:04:15;13.53;;;8.18;;
27895;SDS011;15241;48.374;10.876;2023-02-15T03:09:18;13.13;;;7.85;;
27895;SDS011;15241;48.374;10.876;2023-02-15T03:14:20;12.55;;;8.18;;
27895;SDS011;15241;48.374;10.876;2023-02-15T03:19:20;12.65;;;8.40;;
27895;SDS011;15241;48.374;10.876;2023-02-15T03:24:21;12.98;;;8.30;;
27895;SDS011;15241;48.374;10.876;2023-02-15T03:29:24;13.85;;;8.53;;
27895;SDS011;15241;48.374;10.876;2023-02-15T03:34:25;18.80;;;7.87;;
27895;SDS011;15241;48.374;10.876;2023-02-15T03:39:25;16.75;;;8.10;;
27895;SDS011;15241;48.374;10.876;2023-02-15T03:44:36;12.60;;;7.72;;
27895;SDS011;15241;48.374;10.876;2023-02-15T03:49:39;9.43;;;7.17;;
27895;SDS011;15241;48.374;10.876;2023-02-15T03:54:38;14.58;;;8.08;;
27895;SDS011;15241;48.374;10.876;2023-02-15T03:59:38;13.68;;;7.80;;
27895;SDS011;15241;48.374;10.876;2023-02-15T04:04:37;13.30;;;8.10;;
27895;SDS011;15241;48.374;10.876;2023-02-15T04:09:38;13.25;;;8.60;;
27895;SDS011;15241;48.374;10.876;2023-02-15T04:14:38;18.95;;;7.65;;
27895;SDS011;15241;48.374;10.876;2023-02-15T04:19:36;15.83;;;8.28;;
27895;SDS011;15241;48.374;10.876;2023-02-15T04:24:35;11.50;;;7.53;;
27895;SDS011;15241;48.374;10.876;2023-02-15T04:29:34;10.45;;;7.33;;
27895;SDS011;15241;48.374;10.876;2023-02-15T04:34:33;12.13;;;7.90;;
27895;SDS011;15241;48.374;10.876;2023-02-15T04:39:32;11.20;;;7.33;;
27895;SDS011;15241;48.374;10.876;2023-02-15T04:44:31;17.77;;;7.47;;
27895;SDS011;15241;48.374;10.876;2023-02-15T04:49:30;11.70;;;6.75;;
27895;SDS011;15241;48.374;10.876;2023-02-15T04:54:29;20.62;;;7.60;;
27895;SDS011;15241;48.374;10.876;2023-02-15T04:59:27;12.13;;;6.90;;
27895;SDS011;15241;48.374;10.876;2023-02-15T05:04:26;13.78;;;7.05;;
27895;SDS011;15241;48.374;10.876;2023-02-15T05:09:25;12.03;;;7.33;;
27895;SDS011;15241;48.374;10.876;2023-02-15T05:14:24;29.60;;;7.92;;
27895;SDS011;15241;48.374;10.876;2023-02-15T05:19:23;29.32;;;9.30;;
27895;SDS011;15241;48.374;10.876;2023-02-15T05:24:22;19.92;;;8.93;;
27895;SDS011;15241;48.374;10.876;2023-02-15T05:29:21;22.02;;;8.33;;
27895;SDS011;15241;48.374;10.876;2023-02-15T05:34:21;27.93;;;8.38;;
27895;SDS011;15241;48.374;10.876;2023-02-15T05:39:20;30.02;;;8.20;;
27895;SDS011;15241;48.374;10.876;2023-02-15T05:44:19;16.32;;;8.23;;
27895;SDS011;15241;48.374;10.876;2023-02-15T05:49:18;14.95;;;7.92;;
27895;SDS011;15241;48.374;10.876;2023-02-15T05:54:17;17.12;;;8.53;;
27895;SDS011;15241;48.374;10.876;2023-02-15T05:59:16;20.02;;;8.18;;
27895;SDS011;15241;48.374;10.876;2023-02-15T06:04:15;11.25;;;7.35;;
27895;SDS011;15241;48.374;10.876;2023-02-15T06:09:14;28.55;;;7.87;;
27895;SDS011;15241;48.374;10.876;2023-02-15T06:14:13;18.20;;;7.65;;
27895;SDS011;15241;48.374;10.876;2023-02-15T06:19:12;11.63;;;7.65;;
27895;SDS011;15241;48.374;10.876;2023-02-15T06:24:12;16.35;;;8.33;;
27895;SDS011;15241;48.374;10.876;2023-02-15T06:29:10;14.73;;;7.67;;
27895;SDS011;15241;48.374;10.876;2023-02-15T06:34:09;12.60;;;8.20;;
27895;SDS011;15241;48.374;10.876;2023-02-15T06:39:08;10.78;;;6.97;;
27895;SDS011;15241;48.374;10.876;2023-02-15T06:44:07;15.70;;;7.60;;
27895;SDS011;15241;48.374;10.876;2023-02-15T06:49:06;24.80;;;8.30;;
27895;SDS011;15241;48.374;10.876;2023-02-15T06:54:05;22.67;;;7.87;;
27895;SDS011;15241;48.374;10.876;2023-02-15T06:59:04;27.42;;;7.50;;
27895;SDS011;15241;48.374;10.876;2023-02-15T07:04:03;24.30;;;7.87;;
27895;SDS011;15241;48.374;10.876;2023-02-15T07:09:02;12.70;;;7.53;;
27895;SDS011;15241;48.374;10.876;2023-02-15T07:14:02;13.85;;;8.03;;
27895;SDS011;15241;48.374;10.876;2023-02-15T07:19:00;15.38;;;8.83;;
27895;SDS011;15241;48.374;10.876;2023-02-15T07:23:59;15.70;;;8.33;;
27895;SDS011;15241;48.374;10.876;2023-02-15T07:28:58;17.23;;;8.00;;
27895;SDS011;15241;48.374;10.876;2023-02-15T07:33:58;19.95;;;8.83;;
27895;SDS011;15241;48.374;10.876;2023-02-15T07:38:57;13.35;;;8.95;;
27895;SDS011;15241;48.374;10.876;2023-02-15T07:43:55;17.37;;;8.63;;
27895;SDS011;15241;48.374;10.876;2023-02-15T07:48:54;12.90;;;8.65;;
27895;SDS011;15241;48.374;10.876;2023-02-15T07:53:53;16.15;;;8.38;;
27895;SDS011;15241;48.374;10.876;2023-02-15T07:58:52;14.03;;;8.73;;
27895;SDS011;15241;48.374;10.876;2023-02-15T08:03:51;12.13;;;8.85;;
27895;SDS011;15241;48.374;10.876;2023-02-15T08:08:50;12.10;;;8.13;;
27895;SDS011;15241;48.374;10.876;2023-02-15T08:13:50;13.83;;;8.68;;
27895;SDS011;15241;48.374;10.876;2023-02-15T08:18:51;13.68;;;8.53;;
27895;SDS011;15241;48.374;10.876;2023-02-15T08:23:50;13.60;;;8.53;;
27895;SDS011;15241;48.374;10.876;2023-02-15T08:28:50;11.38;;;8.20;;
27895;SDS011;15241;48.374;10.876;2023-02-15T08:33:51;14.00;;;8.68;;
27895;SDS011;15241;48.374;10.876;2023-02-15T08:38:51;14.98;;;9.15;;
27895;SDS011;15241;48.374;10.876;2023-02-15T08:43:51;17.70;;;9.20;;
27895;SDS011;15241;48.374;10.876;2023-02-15T08:48:51;12.43;;;8.68;;
27895;SDS011;15241;48.374;10.876;2023-02-15T08:53:50;13.18;;;8.90;;
27895;SDS011;15241;48.374;10.876;2023-02-15T08:58:50;11.55;;;8.13;;
27895;SDS011;15241;48.374;10.876;2023-02-15T09:03:51;12.13;;;9.05;;
27895;SDS011;15241;48.374;10.876;2023-02-15T09:08:52;16.27;;;9.38;;
27895;SDS011;15241;48.374;10.876;2023-02-15T09:13:52;14.50;;;8.80;;
27895;SDS011;15241;48.374;10.876;2023-02-15T09:18:52;15.98;;;9.13;;
27895;SDS011;15241;48.374;10.876;2023-02-15T09:23:55;14.07;;;9.28;;
27895;SDS011;15241;48.374;10.876;2023-02-15T09:28:54;14.13;;;9.23;;
27895;SDS011;15241;48.374;10.876;2023-02-15T09:33:55;12.53;;;8.65;;
27895;SDS011;15241;48.374;10.876;2023-02-15T09:38:56;12.88;;;9.65;;
27895;SDS011;15241;48.374;10.876;2023-02-15T09:43:58;12.35;;;8.58;;
27895;SDS011;15241;48.374;10.876;2023-02-15T09:48:59;12.00;;;9.23;;
27895;SDS011;15241;48.374;10.876;2023-02-15T09:54:08;13.45;;;9.78;;
27895;SDS011;15241;48.374;10.876;2023-02-15T09:59:14;12.37;;;8.88;;
27895;SDS011;15241;48.374;10.876;2023-02-15T10:04:22;11.35;;;8.50;;
27895;SDS011;15241;48.374;10.876;2023-02-15T10:09:36;11.97;;;8.78;;
27895;SDS011;15241;48.374;10.876;2023-02-15T10:14:50;12.73;;;9.20;;
27895;SDS011;15241;48.374;10.876;2023-02-15T10:19:56;13.80;;;9.90;;
27895;SDS011;15241;48.374;10.876;2023-02-15T10:25:03;13.45;;;9.98;;
27895;SDS011;15241;48.374;10.876;2023-02-15T10:30:19;15.65;;;9.85;;
27895;SDS011;15241;48.374;10.876;2023-02-15T10:35:22;12.98;;;9.70;;
27895;SDS011;15241;48.374;10.876;2023-02-15T10:40:25;13.95;;;10.18;;
27895;SDS011;15241;48.374;10.876;2023-02-15T10:45:36;13.05;;;9.58;;
27895;SDS011;15241;48.374;10.876;2023-02-15T10:50:43;13.08;;;9.50;;
27895;SDS011;15241;48.374;10.876;2023-02-15T10:55:54;9.88;;;8.60;;
27895;SDS011;15241;48.374;10.876;2023-02-15T11:00:56;8.95;;;8.13;;
27895;SDS011;15241;48.374;10.876;2023-02-15T11:05:59;8.70;;;7.87;;
27895;SDS011;15241;48.374;10.876;2023-02-15T11:11:03;8.23;;;7.53;;
27895;SDS011;15241;48.374;10.876;2023-02-15T11:16:05;7.33;;;6.70;;
27895;SDS011;15241;48.374;10.876;2023-02-15T11:21:08;8.88;;;8.18;;
27895;SDS011;15241;48.374;10.876;2023-02-15T11:26:11;9.00;;;8.30;;
27895;SDS011;15241;48.374;10.876;2023-02-15T11:31:13;8.28;;;7.58;;
27895;SDS011;15241;48.374;10.876;2023-02-15T11:36:16;8.48;;;7.67;;
27895;SDS011;15241;48.374;10.876;2023-02-15T11:41:18;8.23;;;7.58;;
27895;SDS011;15241;48.374;10.876;2023-02-15T11:46:21;8.78;;;8.08;;
27895;SDS011;15241;48.374;10.876;2023-02-15T11:51:20;8.43;;;7.72;;
27895;SDS011;15241;48.374;10.876;2023-02-15T11:56:20;10.15;;;9.25;;
27895;SDS011;15241;48.374;10.876;2023-02-15T12:01:23;10.45;;;9.55;;
27895;SDS011;15241;48.374;10.876;2023-02-15T12:06:24;10.43;;;9.43;;
27895;SDS011;15241;48.374;10.876;2023-02-15T12:11:26;10.72;;;9.73;;
27895;SDS011;15241;48.374;10.876;2023-02-15T12:16:29;10.72;;;9.95;;
27895;SDS011;15241;48.374;10.876;2023-02-15T12:21:31;11.08;;;10.35;;
27895;SDS011;15241;48.374;10.876;2023-02-15T12:26:33;12.30;;;11.08;;
27895;SDS011;15241;48.374;10.876;2023-02-15T12:31:36;12.60;;;11.75;;
27895;SDS011;15241;48.374;10.876;2023-02-15T12:36:43;12.58;;;11.68;;
27895;SDS011;15241;48.374;10.876;2023-02-15T12:41:44;13.18;;;12.37;;
27895;SDS011;15241;48.374;10.876;2023-02-15T12:46:54;14.83;;;13.70;;
27895;SDS011;15241;48.374;10.876;2023-02-15T12:51:56;14.73;;;13.72;;
27895;SDS011;15241;48.374;10.876;2023-02-15T12:56:56;15.30;;;14.40;;
27895;SDS011;15241;48.374;10.876;2023-02-15T13:01:56;16.37;;;15.20;;
27895;SDS011;15241;48.374;10.876;2023-02-15T13:06:55;16.80;;;15.63;;
27895;SDS011;15241;48.374;10.876;2023-02-15T13:11:57;17.27;;;16.12;;
27895;SDS011;15241;48.374;10.876;2023-02-15T13:17:02;18.62;;;17.32;;
27895;SDS011;15241;48.374;10.876;2023-02-15T13:22:02;18.45;;;17.25;;
27895;SDS011;15241;48.374;10.876;2023-02-15T13:27:04;19.40;;;18.20;;
27895;SDS011;15241;48.374;10.876;2023-02-15T13:32:10;20.12;;;18.77;;
27895;SDS011;15241;48.374;10.876;2023-02-15T13:37:12;20.77;;;19.35;;
27895;SDS011;15241;48.374;10.876;2023-02-15T13:42:16;19.48;;;18.25;;
27895;SDS011;15241;48.374;10.876;2023-02-15T13:47:20;19.60;;;18.30;;
27895;SDS011;15241;48.374;10.876;2023-02-15T13:52:27;21.15;;;19.50;;
27895;SDS011;15241;48.374;10.876;2023-02-15T13:57:39;19.37;;;17.92;;
27895;SDS011;15241;48.374;10.876;2023-02-15T14:02:52;18.50;;;17.40;;
27895;SDS011;15241;48.374;10.876;2023-02-15T14:08:07;17.98;;;16.65;;
27895;SDS011;15241;48.374;10.876;2023-02-15T14:18:35;17.82;;;16.42;;
27895;SDS011;15241;48.374;10.876;2023-02-15T14:23:47;17.07;;;15.95;;
27895;SDS011;15241;48.374;10.876;2023-02-15T14:28:51;16.70;;;15.60;;
27895;SDS011;15241;48.374;10.876;2023-02-15T14:33:53;15.98;;;14.68;;
27895;SDS011;15241;48.374;10.876;2023-02-15T14:38:58;16.07;;;14.93;;
27895;SDS011;15241;48.374;10.876;2023-02-15T14:49:04;15.70;;;14.43;;
27895;SDS011;15241;48.374;10.876;2023-02-15T14:54:07;14.65;;;13.65;;
27895;SDS011;15241;48.374;10.876;2023-02-15T14:59:14;15.38;;;14.18;;
27895;SDS011;15241;48.374;10.876;2023-02-15T15:04:22;13.97;;;12.83;;
27895;SDS011;15241;48.374;10.876;2023-02-15T15:09:22;13.55;;;12.55;;
27895;SDS011;15241;48.374;10.876;2023-02-15T15:14:41;14.00;;;12.90;;
27895;SDS011;15241;48.374;10.876;2023-02-15T15:25:10;13.83;;;12.55;;
27895;SDS011;15241;48.374;10.876;2023-02-15T15:36:06;14.13;;;12.93;;
27895;SDS011;15241;48.374;10.876;2023-02-15T15:41:13;14.33;;;13.03;;
27895;SDS011;15241;48.374;10.876;2023-02-15T15:46:20;14.68;;;13.30;;
27895;SDS011;15241;48.374;10.876;2023-02-15T15:51:25;15.38;;;14.05;;
27895;SDS011;15241;48.374;10.876;2023-02-15T15:56:27;16.03;;;14.33;;
27895;SDS011;15241;48.374;10.876;2023-02-15T16:01:28;17.02;;;15.08;;
27895;SDS011;15241;48.374;10.876;2023-02-15T16:06:30;17.00;;;15.30;;
27895;SDS011;15241;48.374;10.876;2023-02-15T16:11:32;17.05;;;15.18;;
27895;SDS011;15241;48.374;10.876;2023-02-15T16:16:31;17.60;;;15.40;;
27895;SDS011;15241;48.374;10.876;2023-02-15T16:21:30;17.95;;;16.05;;
27895;SDS011;15241;48.374;10.876;2023-02-15T16:26:37;24.52;;;17.70;;
27895;SDS011;15241;48.374;10.876;2023-02-15T16:31:41;19.65;;;17.48;;
27895;SDS011;15241;48.374;10.876;2023-02-15T16:36:40;21.90;;;17.32;;
27895;SDS011;15241;48.374;10.876;2023-02-15T16:41:39;25.43;;;19.30;;
27895;SDS011;15241;48.374;10.876;2023-02-15T16:51:44;22.32;;;17.73;;
27895;SDS011;15241;48.374;10.876;2023-02-15T16:56:49;23.25;;;17.67;;
27895;SDS011;15241;48.374;10.876;2023-02-15T17:01:49;26.45;;;17.07;;
27895;SDS011;15241;48.374;10.876;2023-02-15T17:06:57;28.30;;;20.20;;
27895;SDS011;15241;48.374;10.876;2023-02-15T17:11:59;28.07;;;17.50;;
27895;SDS011;15241;48.374;10.876;2023-02-15T17:17:02;23.12;;;17.02;;
27895;SDS011;15241;48.374;10.876;2023-02-15T17:22:04;24.75;;;16.40;;
27895;SDS011;15241;48.374;10.876;2023-02-15T17:27:05;22.45;;;15.98;;
27895;SDS011;15241;48.374;10.876;2023-02-15T17:32:14;23.80;;;16.73;;
27895;SDS011;15241;48.374;10.876;2023-02-15T17:37:23;24.57;;;17.85;;
27895;SDS011;15241;48.374;10.876;2023-02-15T17:42:27;27.95;;;17.10;;
27895;SDS011;15241;48.374;10.876;2023-02-15T17:47:25;24.23;;;16.82;;
27895;SDS011;15241;48.374;10.876;2023-02-15T17:52:24;27.48;;;18.80;;
27895;SDS011;15241;48.374;10.876;2023-02-15T17:57:25;27.17;;;18.90;;
27895;SDS011;15241;48.374;10.876;2023-02-15T18:02:33;27.95;;;18.50;;
27895;SDS011;15241;48.374;10.876;2023-02-15T18:07:27;27.62;;;18.50;;
27895;SDS011;15241;48.374;10.876;2023-02-15T18:12:28;27.25;;;19.05;;
27895;SDS011;15241;48.374;10.876;2023-02-15T18:17:28;27.98;;;19.80;;
27895;SDS011;15241;48.374;10.876;2023-02-15T18:22:36;29.77;;;19.25;;
27895;SDS011;15241;48.374;10.876;2023-02-15T18:27:35;29.50;;;19.10;;
27895;SDS011;15241;48.374;10.876;2023-02-15T18:32:35;28.32;;;18.52;;
27895;SDS011;15241;48.374;10.876;2023-02-15T18:37:36;29.18;;;19.50;;
27895;SDS011;15241;48.374;10.876;2023-02-15T18:42:35;27.25;;;17.45;;
27895;SDS011;15241;48.374;10.876;2023-02-15T18:47:34;29.42;;;19.73;;
27895;SDS011;15241;48.374;10.876;2023-02-15T18:52:33;25.90;;;18.20;;
27895;SDS011;15241;48.374;10.876;2023-02-15T18:57:34;27.10;;;19.25;;
27895;SDS011;15241;48.374;10.876;2023-02-15T19:02:33;34.25;;;23.05;;
27895;SDS011;15241;48.374;10.876;2023-02-15T19:07:33;31.25;;;21.48;;
27895;SDS011;15241;48.374;10.876;2023-02-15T19:12:33;33.55;;;22.35;;
27895;SDS011;15241;48.374;10.876;2023-02-15T19:17:31;37.28;;;22.55;;
27895;SDS011;15241;48.374;10.876;2023-02-15T19:22:30;37.17;;;23.62;;
27895;SDS011;15241;48.374;10.876;2023-02-15T19:27:30;37.30;;;24.27;;
27895;SDS011;15241;48.374;10.876;2023-02-15T19:32:31;36.42;;;23.30;;
27895;SDS011;15241;48.374;10.876;2023-02-15T19:37:31;36.20;;;22.27;;
27895;SDS011;15241;48.374;10.876;2023-02-15T19:42:31;40.33;;;24.70;;
27895;SDS011;15241;48.374;10.876;2023-02-15T19:47:31;37.63;;;22.45;;
27895;SDS011;15241;48.374;10.876;2023-02-15T19:52:29;34.88;;;22.30;;
27895;SDS011;15241;48.374;10.876;2023-02-15T19:57:28;36.60;;;23.75;;
27895;SDS011;15241;48.374;10.876;2023-02-15T20:02:27;40.10;;;24.23;;
27895;SDS011;15241;48.374;10.876;2023-02-15T20:07:26;43.42;;;25.02;;
27895;SDS011;15241;48.374;10.876;2023-02-15T20:12:25;44.35;;;25.45;;
27895;SDS011;15241;48.374;10.876;2023-02-15T20:17:24;47.85;;;27.00;;
27895;SDS011;15241;48.374;10.876;2023-02-15T20:22:24;49.63;;;27.22;;
27895;SDS011;15241;48.374;10.876;2023-02-15T20:27:23;44.53;;;25.90;;
27895;SDS011;15241;48.374;10.876;2023-02-15T20:32:22;64.03;;;29.37;;
27895;SDS011;15241;48.374;10.876;2023-02-15T20:37:23;69.95;;;29.18;;
27895;SDS011;15241;48.374;10.876;2023-02-15T20:42:23;56.77;;;28.23;;
27895;SDS011;15241;48.374;10.876;2023-02-15T20:47:22;45.48;;;25.77;;
27895;SDS011;15241;48.374;10.876;2023-02-15T20:52:21;50.08;;;24.65;;
27895;SDS011;15241;48.374;10.876;2023-02-15T20:57:20;46.13;;;25.02;;
27895;SDS011;15241;48.374;10.876;2023-02-15T21:02:19;49.15;;;28.38;;
27895;SDS011;15241;48.374;10.876;2023-02-15T21:07:19;48.30;;;24.82;;
27895;SDS011;15241;48.374;10.876;2023-02-15T21:12:19;68.40;;;27.48;;
27895;SDS011;15241;48.374;10.876;2023-02-15T21:17:18;50.15;;;26.55;;
27895;SDS011;15241;48.374;10.876;2023-02-15T21:22:16;51.05;;;26.60;;
27895;SDS011;15241;48.374;10.876;2023-02-15T21:27:20;66.05;;;26.37;;
27895;SDS011;15241;48.374;10.876;2023-02-15T21:32:24;61.92;;;27.73;;
27895;SDS011;15241;48.374;10.876;2023-02-15T21:37:28;97.45;;;28.47;;
27895;SDS011;15241;48.374;10.876;2023-02-15T21:42:28;59.83;;;26.00;;
27895;SDS011;15241;48.374;10.876;2023-02-15T21:47:27;57.98;;;25.32;;
27895;SDS011;15241;48.374;10.876;2023-02-15T21:52:27;50.05;;;26.45;;
27895;SDS011;15241;48.374;10.876;2023-02-15T21:57:26;48.25;;;25.25;;
27895;SDS011;15241;48.374;10.876;2023-02-15T22:02:26;42.55;;;24.00;;
27895;SDS011;15241;48.374;10.876;2023-02-15T22:07:26;74.82;;;25.37;;
27895;SDS011;15241;48.374;10.876;2023-02-15T22:12:25;41.73;;;24.02;;
27895;SDS011;15241;48.374;10.876;2023-02-15T22:17:25;60.78;;;24.63;;
27895;SDS011;15241;48.374;10.876;2023-02-15T22:22:24;41.60;;;22.45;;
27895;SDS011;15241;48.374;10.876;2023-02-15T22:27:23;36.68;;;22.05;;
27895;SDS011;15241;48.374;10.876;2023-02-15T22:32:24;33.88;;;21.12;;
27895;SDS011;15241;48.374;10.876;2023-02-15T22:37:24;38.02;;;24.07;;
27895;SDS011;15241;48.374;10.876;2023-02-15T22:42:23;41.70;;;24.92;;
27895;SDS011;15241;48.374;10.876;2023-02-15T22:47:25;40.08;;;24.70;;
27895;SDS011;15241;48.374;10.876;2023-02-15T22:52:25;38.48;;;22.58;;
27895;SDS011;15241;48.374;10.876;2023-02-15T22:57:26;42.88;;;26.12;;
27895;SDS011;15241;48.374;10.876;2023-02-15T23:02:26;48.23;;;27.45;;
27895;SDS011;15241;48.374;10.876;2023-02-15T23:07:25;46.08;;;27.40;;
27895;SDS011;15241;48.374;10.876;2023-02-15T23:12:25;44.08;;;25.35;;
27895;SDS011;15241;48.374;10.876;2023-02-15T23:17:25;43.95;;;25.05;;
27895;SDS011;15241;48.374;10.876;2023-02-15T23:22:24;45.70;;;26.77;;
27895;SDS011;15241;48.374;10.876;2023-02-15T23:27:23;44.20;;;26.23;;
27895;SDS011;15241;48.374;10.876;2023-02-15T23:32:22;42.30;;;22.90;;
27895;SDS011;15241;48.374;10.876;2023-02-15T23:37:21;38.92;;;23.12;;
27895;SDS011;15241;48.374;10.876;2023-02-15T23:42:21;46.73;;;25.82;;
27895;SDS011;15241;48.374;10.876;2023-02-15T23:47:22;52.50;;;25.95;;
27895;SDS011;15241;48.374;10.876;2023-02-15T23:52:23;47.38;;;24.85;;
27895;SDS011;15241;48.374;10.876;2023-02-15T23:57:22;45.90;;;25.97;;
